Terminal Aerodrome Forecast
Issued by NWS

Home | Current Version | Previous Version | Graphics & Text | Print | Product List | Glossary On
Versions: 1 2 3 4 5 6 7 8 9 10 11 12 13
353
FTUS43 KMPX 201123
TAFAXN
TAF
KAXN 201123Z 2012/2112 34009KT P6SM BKN100
     FM202000 31006KT P6SM BKN150=

USA.gov is the U.S. government's official web portal to all federal, state and local government web resources and services.